Time;durP1;ratioP1;P1;durP2;ratioP2;P2;SDS_P1;SDS_P2;PMS_P1;PMS_P2;Temp;Humidity;BMP_temperature;BMP_pressure;BME280_temperature;BME280_humidity;BME280_pressure;Samples;Min_cycle;Max_cycle;Signal;HPM_P1;HPM_P2
2024/01/15 00:02:22;;;;;;;5.80;1.40;;;;;;;;;;4954864;28;20131;-87
2024/01/15 00:04:48;;;;;;;2.42;1.05;;;;;;;;;;4947681;28;20066;-86
2024/01/15 00:07:14;;;;;;;2.63;0.77;;;;;;;;;;4960448;28;20517;-87
2024/01/15 00:09:40;;;;;;;2.92;1.40;;;;;;;;;;4960140;28;20077;-86
2024/01/15 00:12:06;;;;;;;6.15;1.23;;;;;;;;;;4942839;28;20057;-86
2024/01/15 00:14:32;;;;;;;0.40;0.40;;;;;;;;;;4962329;28;21388;-85
2024/01/15 00:16:58;;;;;;;0.40;0.13;;;;;;;;;;4939160;28;20043;-86
2024/01/15 00:19:24;;;;;;;2.60;1.15;;;;;;;;;;4966228;28;20047;-86
2024/01/15 00:21:51;;;;;;;1.05;0.50;;;;;;;;;;4980262;28;20058;-86
2024/01/15 00:24:17;;;;;;;6.45;1.10;;;;;;;;;;4983693;28;20042;-86
2024/01/15 00:26:43;;;;;;;4.28;1.35;;;;;;;;;;4999273;28;20374;-86
2024/01/15 00:29:09;;;;;;;21.70;1.80;;;;;;;;;;4991855;28;20401;-87
2024/01/15 00:31:35;;;;;;;0.10;0.03;;;;;;;;;;4974278;28;20060;-86
2024/01/15 00:34:01;;;;;;;2.92;0.70;;;;;;;;;;5000703;28;20070;-85
2024/01/15 00:36:27;;;;;;;2.50;0.57;;;;;;;;;;4998290;28;20086;-86
2024/01/15 00:38:54;;;;;;;0.57;0.28;;;;;;;;;;5004068;28;20042;-86
2024/01/15 00:41:20;;;;;;;7.95;1.17;;;;;;;;;;4997880;28;20092;-85
2024/01/15 00:43:46;;;;;;;2.63;0.63;;;;;;;;;;4991620;28;20043;-86
2024/01/15 00:46:12;;;;;;;5.78;0.85;;;;;;;;;;4978483;28;20046;-86
2024/01/15 00:48:38;;;;;;;2.30;0.80;;;;;;;;;;5000463;28;20048;-86
2024/01/15 00:51:05;;;;;;;1.77;0.43;;;;;;;;;;5003761;28;20464;-86
2024/01/15 00:53:31;;;;;;;2.67;0.90;;;;;;;;;;4978972;28;20055;-85
2024/01/15 00:55:57;;;;;;;2.17;1.13;;;;;;;;;;4997767;28;20038;-86
2024/01/15 00:58:23;;;;;;;2.17;0.22;;;;;;;;;;4994170;28;20505;-86
2024/01/15 01:00:49;;;;;;;4.55;1.38;;;;;;;;;;4998974;28;20066;-86
2024/01/15 01:03:15;;;;;;;2.45;0.70;;;;;;;;;;5000648;28;20121;-86
2024/01/15 01:05:41;;;;;;;6.22;0.65;;;;;;;;;;4993263;28;20034;-86
2024/01/15 01:08:07;;;;;;;3.05;0.88;;;;;;;;;;4997158;28;20087;-86
2024/01/15 01:10:33;;;;;;;2.67;0.38;;;;;;;;;;4993681;28;20046;-86
2024/01/15 01:12:59;;;;;;;4.82;1.00;;;;;;;;;;4995680;28;20405;-86
2024/01/15 01:15:25;;;;;;;3.33;0.25;;;;;;;;;;4998081;28;20116;-86
2024/01/15 01:17:51;;;;;;;5.28;2.17;;;;;;;;;;4973046;28;20081;-86
2024/01/15 01:20:17;;;;;;;5.32;0.60;;;;;;;;;;5003736;28;20037;-86
2024/01/15 01:22:43;;;;;;;0.10;0.05;;;;;;;;;;4975600;28;20055;-86
2024/01/15 01:25:09;;;;;;;5.75;0.55;;;;;;;;;;4963679;28;20122;-86
2024/01/15 01:27:35;;;;;;;5.72;0.55;;;;;;;;;;4964996;28;20043;-86
2024/01/15 01:30:02;;;;;;;1.52;0.57;;;;;;;;;;4958682;28;20042;-86
2024/01/15 01:32:28;;;;;;;4.82;1.33;;;;;;;;;;4968053;28;20454;-85
2024/01/15 01:34:54;;;;;;;5.00;0.43;;;;;;;;;;4965160;28;20038;-86
2024/01/15 01:37:20;;;;;;;2.17;0.82;;;;;;;;;;4967477;28;20053;-86
2024/01/15 01:39:46;;;;;;;6.10;0.77;;;;;;;;;;4966416;28;20508;-86
2024/01/15 01:42:12;;;;;;;1.02;0.22;;;;;;;;;;4957873;28;20034;-86
2024/01/15 01:44:38;;;;;;;1.33;0.50;;;;;;;;;;4960058;28;20049;-86
2024/01/15 01:47:05;;;;;;;0.95;0.28;;;;;;;;;;4965404;28;20423;-86
2024/01/15 01:49:32;;;;;;;2.80;0.38;;;;;;;;;;4960706;28;20038;-87
2024/01/15 01:51:59;;;;;;;0.30;0.20;;;;;;;;;;4968102;28;20434;-85
2024/01/15 01:54:26;;;;;;;2.45;0.47;;;;;;;;;;4954902;28;20046;-85
2024/01/15 01:56:52;;;;;;;0.30;0.10;;;;;;;;;;4976704;28;20038;-85
2024/01/15 01:59:18;;;;;;;0.45;0.13;;;;;;;;;;4963662;28;20031;-86
2024/01/15 02:01:45;;;;;;;0.90;0.03;;;;;;;;;;4956067;28;20089;-85
2024/01/15 02:04:12;;;;;;;0.63;0.17;;;;;;;;;;4968244;28;20038;-85
2024/01/15 02:06:38;;;;;;;0.90;0.20;;;;;;;;;;4950549;28;20038;-85
2024/01/15 02:09:05;;;;;;;0.35;0.00;;;;;;;;;;4968883;28;20090;-87
2024/01/15 02:11:31;;;;;;;1.10;0.45;;;;;;;;;;4968054;28;20375;-87
2024/01/15 02:13:57;;;;;;;0.52;0.10;;;;;;;;;;4965429;28;20057;-87
2024/01/15 02:16:23;;;;;;;0.00;0.00;;;;;;;;;;4942035;28;20034;-86
2024/01/15 02:18:49;;;;;;;0.82;0.08;;;;;;;;;;4958692;28;20462;-86
2024/01/15 02:21:16;;;;;;;1.73;0.43;;;;;;;;;;4965947;28;20061;-87
2024/01/15 02:23:42;;;;;;;3.10;0.38;;;;;;;;;;4997573;28;20042;-87
2024/01/15 02:26:08;;;;;;;0.88;0.40;;;;;;;;;;4986007;28;20042;-87
2024/01/15 02:28:34;;;;;;;1.63;0.70;;;;;;;;;;4984263;28;20054;-87
2024/01/15 02:31:00;;;;;;;2.92;0.77;;;;;;;;;;4980203;28;20050;-87
2024/01/15 02:33:26;;;;;;;0.88;0.05;;;;;;;;;;4968912;28;20049;-86
2024/01/15 02:35:52;;;;;;;1.67;0.30;;;;;;;;;;4969055;28;20050;-86
2024/01/15 02:38:19;;;;;;;2.35;0.43;;;;;;;;;;4976285;28;20038;-87
2024/01/15 02:40:47;;;;;;;10.68;1.08;;;;;;;;;;4995860;28;20149;-86
2024/01/15 02:43:14;;;;;;;3.75;0.70;;;;;;;;;;4980946;28;20041;-87
2024/01/15 02:45:40;;;;;;;3.83;0.20;;;;;;;;;;4996537;28;20037;-87
2024/01/15 02:48:06;;;;;;;1.77;0.82;;;;;;;;;;4997923;28;20493;-87
2024/01/15 02:50:32;;;;;;;0.65;0.20;;;;;;;;;;4993040;28;20061;-86
2024/01/15 02:52:58;;;;;;;5.03;0.65;;;;;;;;;;4986541;28;20121;-86
2024/01/15 02:55:24;;;;;;;1.75;0.47;;;;;;;;;;4996586;28;20045;-87
2024/01/15 02:57:50;;;;;;;3.15;0.65;;;;;;;;;;4998238;28;20042;-86
2024/01/15 03:00:16;;;;;;;3.00;1.02;;;;;;;;;;4993447;28;20437;-86
2024/01/15 03:02:43;;;;;;;3.22;0.77;;;;;;;;;;4976009;28;20038;-88
2024/01/15 03:05:09;;;;;;;1.27;0.68;;;;;;;;;;4995239;28;20043;-87
2024/01/15 03:07:35;;;;;;;0.47;0.28;;;;;;;;;;4997746;28;20038;-86
2024/01/15 03:10:01;;;;;;;6.43;1.38;;;;;;;;;;4990572;28;20494;-86
2024/01/15 03:12:27;;;;;;;1.63;0.63;;;;;;;;;;4998742;28;20046;-86
2024/01/15 03:14:53;;;;;;;5.53;1.10;;;;;;;;;;4999761;28;20117;-86
2024/01/15 03:17:19;;;;;;;0.20;0.20;;;;;;;;;;4994504;28;20047;-86
2024/01/15 03:19:45;;;;;;;5.18;0.47;;;;;;;;;;4991982;28;20118;-86
2024/01/15 03:22:11;;;;;;;4.95;0.40;;;;;;;;;;4999695;28;20057;-86
2024/01/15 03:24:37;;;;;;;2.90;0.70;;;;;;;;;;4987563;28;20045;-87
2024/01/15 03:27:03;;;;;;;2.58;0.77;;;;;;;;;;5007179;28;20038;-87
2024/01/15 03:29:29;;;;;;;2.40;0.77;;;;;;;;;;5005648;28;20046;-87
2024/01/15 03:31:55;;;;;;;1.65;0.70;;;;;;;;;;4995900;28;20018;-87
2024/01/15 03:34:21;;;;;;;2.72;0.52;;;;;;;;;;4982330;28;20126;-87
2024/01/15 03:36:47;;;;;;;2.47;0.20;;;;;;;;;;4984718;28;20121;-86
2024/01/15 03:39:13;;;;;;;1.65;0.30;;;;;;;;;;4985391;28;20037;-87
2024/01/15 03:41:39;;;;;;;1.50;0.50;;;;;;;;;;4996234;28;20088;-86
2024/01/15 03:44:05;;;;;;;2.97;0.85;;;;;;;;;;4989679;28;20463;-87
2024/01/15 03:46:31;;;;;;;4.15;0.90;;;;;;;;;;5001959;28;20068;-87
2024/01/15 03:48:57;;;;;;;2.45;0.50;;;;;;;;;;4991853;28;20042;-87
2024/01/15 03:51:23;;;;;;;4.40;1.20;;;;;;;;;;4983669;28;20115;-86
2024/01/15 03:53:49;;;;;;;0.00;0.00;;;;;;;;;;4985457;28;20049;-87
2024/01/15 03:56:15;;;;;;;3.03;1.52;;;;;;;;;;5003534;28;20382;-87
2024/01/15 03:58:41;;;;;;;1.15;0.28;;;;;;;;;;4977972;28;20035;-87
2024/01/15 04:01:11;;;;;;;0.03;0.00;;;;;;;;;;4976213;28;20060;-87
2024/01/15 04:03:37;;;;;;;3.03;0.57;;;;;;;;;;4990278;28;20058;-86
2024/01/15 04:06:03;;;;;;;2.55;0.77;;;;;;;;;;4978697;28;20093;-86
2024/01/15 04:08:29;;;;;;;1.90;0.32;;;;;;;;;;5000132;28;20031;-86
2024/01/15 04:10:55;;;;;;;1.88;0.30;;;;;;;;;;4998253;28;20371;-86
2024/01/15 04:13:21;;;;;;;3.10;1.05;;;;;;;;;;4985689;28;20044;-86
2024/01/15 04:15:47;;;;;;;0.47;0.40;;;;;;;;;;4998531;28;20092;-87
2024/01/15 04:18:13;;;;;;;0.20;0.13;;;;;;;;;;4971137;28;20441;-86
2024/01/15 04:20:39;;;;;;;0.32;0.13;;;;;;;;;;4987272;28;20042;-86
2024/01/15 04:23:05;;;;;;;1.25;0.30;;;;;;;;;;5014960;28;20089;-87
2024/01/15 04:25:31;;;;;;;0.10;0.08;;;;;;;;;;4979982;28;20042;-87
2024/01/15 04:27:57;;;;;;;6.13;0.80;;;;;;;;;;4995681;28;20125;-86
2024/01/15 04:30:23;;;;;;;3.75;0.35;;;;;;;;;;4996698;28;20546;-86
2024/01/15 04:32:49;;;;;;;12.82;1.13;;;;;;;;;;5017442;28;20042;-86
2024/01/15 04:35:15;;;;;;;3.15;0.68;;;;;;;;;;4981686;28;20038;-87
2024/01/15 04:37:41;;;;;;;2.42;0.60;;;;;;;;;;4998315;28;20405;-86
2024/01/15 04:40:08;;;;;;;5.63;1.60;;;;;;;;;;4999293;28;20080;-87
2024/01/15 04:42:34;;;;;;;0.28;0.28;;;;;;;;;;4993583;28;20141;-86
2024/01/15 04:45:00;;;;;;;1.10;0.47;;;;;;;;;;5001275;28;20121;-86
2024/01/15 04:47:26;;;;;;;3.05;0.85;;;;;;;;;;4988874;28;20034;-86
2024/01/15 04:49:52;;;;;;;4.25;0.90;;;;;;;;;;4987981;28;20101;-87
2024/01/15 04:52:18;;;;;;;10.68;1.08;;;;;;;;;;5003232;28;20532;-87
2024/01/15 04:54:44;;;;;;;2.53;1.10;;;;;;;;;;5003840;28;20030;-87
2024/01/15 04:57:10;;;;;;;3.65;1.10;;;;;;;;;;5000280;28;20047;-87
2024/01/15 04:59:36;;;;;;;12.68;1.17;;;;;;;;;;4984962;28;20061;-87
2024/01/15 05:02:02;;;;;;;7.43;1.13;;;;;;;;;;5003517;28;20060;-87
2024/01/15 05:04:28;;;;;;;2.70;0.52;;;;;;;;;;4997495;28;20038;-87
2024/01/15 05:06:55;;;;;;;2.20;0.90;;;;;;;;;;4986070;28;20045;-86
2024/01/15 05:09:21;;;;;;;3.42;0.40;;;;;;;;;;4997868;28;20042;-86
2024/01/15 05:11:47;;;;;;;3.53;0.57;;;;;;;;;;4984107;28;20029;-87
2024/01/15 05:14:13;;;;;;;4.28;0.22;;;;;;;;;;4981237;28;20117;-87
2024/01/15 05:16:40;;;;;;;0.52;0.20;;;;;;;;;;4983452;28;20065;-86
2024/01/15 05:19:08;;;;;;;1.13;0.25;;;;;;;;;;4990899;28;20460;-86
2024/01/15 05:21:34;;;;;;;2.92;0.45;;;;;;;;;;4968347;28;20062;-86
2024/01/15 05:24:00;;;;;;;2.00;0.80;;;;;;;;;;4977997;28;20039;-86
2024/01/15 05:26:26;;;;;;;0.73;0.35;;;;;;;;;;4998539;28;20043;-86
2024/01/15 05:28:52;;;;;;;2.13;0.57;;;;;;;;;;5002853;28;20555;-86
2024/01/15 05:31:18;;;;;;;1.40;0.20;;;;;;;;;;4998277;28;20049;-86
2024/01/15 05:33:43;;;;;;;1.13;0.17;;;;;;;;;;4986279;28;20133;-86
2024/01/15 05:36:09;;;;;;;2.35;0.20;;;;;;;;;;4982247;28;20492;-87
2024/01/15 05:38:36;;;;;;;0.05;0.03;;;;;;;;;;4992910;28;20042;-87
2024/01/15 05:41:02;;;;;;;7.45;2.38;;;;;;;;;;4984317;28;20034;-86
2024/01/15 05:43:28;;;;;;;0.93;0.38;;;;;;;;;;4981632;28;20046;-85
2024/01/15 05:45:54;;;;;;;0.57;0.43;;;;;;;;;;4995017;28;20042;-86
2024/01/15 05:48:23;;;;;;;2.20;0.63;;;;;;;;;;4989979;28;20042;-86
2024/01/15 05:50:49;;;;;;;0.30;0.20;;;;;;;;;;4997055;28;20041;-86
2024/01/15 05:53:15;;;;;;;2.90;0.73;;;;;;;;;;4994738;28;20059;-86
2024/01/15 05:55:41;;;;;;;1.20;0.40;;;;;;;;;;4981069;28;20038;-86
2024/01/15 05:58:07;;;;;;;3.78;0.47;;;;;;;;;;4998810;28;20045;-86
2024/01/15 06:00:35;;;;;;;0.82;0.20;;;;;;;;;;4993343;28;20049;-85
2024/01/15 06:03:01;;;;;;;2.92;1.30;;;;;;;;;;4999765;28;20042;-85
2024/01/15 06:05:27;;;;;;;3.67;0.70;;;;;;;;;;4991288;28;20125;-85
2024/01/15 06:07:53;;;;;;;14.05;0.40;;;;;;;;;;4993879;28;20109;-85
2024/01/15 06:10:19;;;;;;;3.15;0.95;;;;;;;;;;4995564;28;20137;-86
2024/01/15 06:12:45;;;;;;;2.45;0.28;;;;;;;;;;4990460;28;20100;-85
2024/01/15 06:15:11;;;;;;;6.45;0.85;;;;;;;;;;4996910;28;20089;-85
2024/01/15 06:17:38;;;;;;;0.30;0.10;;;;;;;;;;4997982;28;20054;-85
2024/01/15 06:20:04;;;;;;;4.75;1.33;;;;;;;;;;4992310;28;20034;-86
2024/01/15 06:22:30;;;;;;;3.20;0.63;;;;;;;;;;4994088;28;20061;-86
2024/01/15 06:24:56;;;;;;;10.02;2.30;;;;;;;;;;4981596;28;20393;-85
2024/01/15 06:27:22;;;;;;;2.22;0.80;;;;;;;;;;4973096;28;20038;-87
2024/01/15 06:29:48;;;;;;;0.45;0.43;;;;;;;;;;4987900;28;20077;-85
2024/01/15 06:32:14;;;;;;;5.15;1.10;;;;;;;;;;4996257;28;20046;-87
2024/01/15 06:34:40;;;;;;;0.60;0.20;;;;;;;;;;4986945;28;20038;-85
2024/01/15 06:37:06;;;;;;;0.60;0.38;;;;;;;;;;4984666;28;20054;-85
2024/01/15 06:39:32;;;;;;;1.63;0.40;;;;;;;;;;5017779;28;20022;-86
2024/01/15 06:41:58;;;;;;;2.75;0.90;;;;;;;;;;5008955;28;20070;-86
2024/01/15 06:44:24;;;;;;;0.95;0.25;;;;;;;;;;5020169;28;20026;-87
2024/01/15 06:46:51;;;;;;;4.18;0.52;;;;;;;;;;4992604;28;20047;-86
2024/01/15 06:49:17;;;;;;;2.60;0.43;;;;;;;;;;4999165;28;20053;-85
2024/01/15 06:51:43;;;;;;;7.07;1.38;;;;;;;;;;4991761;28;20121;-86
2024/01/15 06:54:09;;;;;;;1.77;0.65;;;;;;;;;;4997029;28;20050;-86
2024/01/15 06:56:35;;;;;;;0.30;0.13;;;;;;;;;;5000585;28;20042;-86
2024/01/15 06:59:02;;;;;;;3.63;0.52;;;;;;;;;;4997708;28;20038;-86
2024/01/15 07:01:28;;;;;;;0.40;0.10;;;;;;;;;;4991251;28;20049;-87
2024/01/15 07:03:54;;;;;;;0.30;0.20;;;;;;;;;;4998007;28;20432;-85
2024/01/15 07:06:20;;;;;;;2.53;0.77;;;;;;;;;;5002032;28;20087;-86
2024/01/15 07:08:46;;;;;;;3.80;0.63;;;;;;;;;;5003327;28;20037;-86
2024/01/15 07:11:12;;;;;;;4.22;1.13;;;;;;;;;;4978623;28;20126;-89
2024/01/15 07:13:38;;;;;;;3.72;0.32;;;;;;;;;;4998153;28;20532;-85
2024/01/15 07:16:04;;;;;;;6.35;1.88;;;;;;;;;;4975323;28;20038;-87
2024/01/15 07:18:30;;;;;;;3.30;0.52;;;;;;;;;;4995160;28;20046;-84
2024/01/15 07:20:56;;;;;;;1.27;0.65;;;;;;;;;;4996615;28;20371;-85
2024/01/15 07:23:22;;;;;;;0.98;0.60;;;;;;;;;;4961853;28;20394;-85
2024/01/15 07:25:48;;;;;;;0.85;0.20;;;;;;;;;;4959136;28;20046;-87
2024/01/15 07:28:15;;;;;;;1.40;0.60;;;;;;;;;;4966644;28;20035;-87
2024/01/15 07:30:41;;;;;;;1.00;0.65;;;;;;;;;;4945300;28;20512;-87
2024/01/15 07:33:07;;;;;;;6.97;0.43;;;;;;;;;;4939313;28;20047;-87
2024/01/15 07:35:33;;;;;;;2.55;0.13;;;;;;;;;;4945100;28;20121;-86
2024/01/15 07:37:59;;;;;;;4.75;0.57;;;;;;;;;;4954575;28;20043;-87
2024/01/15 07:40:25;;;;;;;1.88;0.77;;;;;;;;;;4968785;28;20034;-86
2024/01/15 07:42:52;;;;;;;1.25;0.43;;;;;;;;;;4945274;28;20039;-87
2024/01/15 07:45:18;;;;;;;3.63;1.25;;;;;;;;;;4948090;28;20143;-87
2024/01/15 07:47:44;;;;;;;2.88;0.50;;;;;;;;;;4968822;28;20053;-87
2024/01/15 07:50:11;;;;;;;1.45;0.28;;;;;;;;;;4971943;28;20036;-87
2024/01/15 07:52:37;;;;;;;3.30;1.25;;;;;;;;;;4979515;28;20022;-86
2024/01/15 07:55:05;;;;;;;0.45;0.45;;;;;;;;;;4955391;28;20053;-86
2024/01/15 07:57:31;;;;;;;3.20;0.60;;;;;;;;;;4952678;28;20039;-86
2024/01/15 07:59:57;;;;;;;1.35;0.28;;;;;;;;;;4963354;28;20047;-86
2024/01/15 08:02:23;;;;;;;6.80;0.95;;;;;;;;;;4951345;28;20052;-87
2024/01/15 08:04:49;;;;;;;3.08;0.75;;;;;;;;;;4966933;28;20041;-87
2024/01/15 08:07:15;;;;;;;3.15;0.70;;;;;;;;;;4965048;28;20046;-87
2024/01/15 08:09:42;;;;;;;6.50;1.05;;;;;;;;;;4968663;28;20482;-86
2024/01/15 08:12:09;;;;;;;2.30;0.73;;;;;;;;;;4960536;28;20058;-88
2024/01/15 08:14:35;;;;;;;2.28;0.95;;;;;;;;;;4941703;28;20457;-87
2024/01/15 08:17:01;;;;;;;2.67;0.68;;;;;;;;;;4958924;28;20042;-86
2024/01/15 08:19:27;;;;;;;4.22;1.13;;;;;;;;;;4960870;28;20109;-86
2024/01/15 08:21:53;;;;;;;2.85;1.58;;;;;;;;;;4958422;28;20053;-86
2024/01/15 08:24:19;;;;;;;1.90;0.93;;;;;;;;;;4993477;28;20489;-87
2024/01/15 08:26:45;;;;;;;1.80;1.00;;;;;;;;;;4975375;28;20045;-86
2024/01/15 08:29:11;;;;;;;3.33;1.20;;;;;;;;;;4981114;28;20691;-86
2024/01/15 08:31:37;;;;;;;10.13;1.95;;;;;;;;;;4974606;28;20140;-86
2024/01/15 08:34:04;;;;;;;7.68;2.33;;;;;;;;;;4998199;28;20074;-86
2024/01/15 08:36:30;;;;;;;4.55;2.33;;;;;;;;;;4991928;28;20042;-88
2024/01/15 08:38:56;;;;;;;0.63;0.55;;;;;;;;;;4980368;28;20038;-87
2024/01/15 08:41:23;;;;;;;1.17;0.68;;;;;;;;;;4996702;28;20057;-86
2024/01/15 08:43:49;;;;;;;5.38;1.15;;;;;;;;;;4999632;28;20124;-88
2024/01/15 08:46:15;;;;;;;1.65;0.28;;;;;;;;;;4994830;28;20049;-89
2024/01/15 08:48:41;;;;;;;10.13;1.77;;;;;;;;;;4996310;28;20109;-88
2024/01/15 08:51:07;;;;;;;7.80;1.05;;;;;;;;;;4978548;28;20034;-89
2024/01/15 08:53:34;;;;;;;3.35;0.50;;;;;;;;;;4982439;28;20085;-87
2024/01/15 08:56:00;;;;;;;2.38;0.45;;;;;;;;;;5005759;28;20085;-87
2024/01/15 08:58:26;;;;;;;1.05;0.50;;;;;;;;;;4987631;28;20402;-87
2024/01/15 09:00:52;;;;;;;0.17;0.10;;;;;;;;;;4978860;28;20034;-87
2024/01/15 09:03:18;;;;;;;4.78;0.55;;;;;;;;;;4983467;28;20038;-88
2024/01/15 09:05:44;;;;;;;1.00;0.47;;;;;;;;;;4985306;28;20041;-86
2024/01/15 09:08:10;;;;;;;3.85;1.15;;;;;;;;;;4974763;28;20135;-86
2024/01/15 09:10:36;;;;;;;18.48;4.65;;;;;;;;;;5002590;28;20076;-85
2024/01/15 09:13:04;;;;;;;3.78;1.60;;;;;;;;;;4994848;28;20045;-85
2024/01/15 09:15:30;;;;;;;8.88;1.85;;;;;;;;;;5002946;28;20038;-86
2024/01/15 09:17:58;;;;;;;7.00;2.80;;;;;;;;;;4994304;28;20043;-87
2024/01/15 09:20:25;;;;;;;7.43;3.25;;;;;;;;;;5002562;28;20052;-87
2024/01/15 09:22:52;;;;;;;13.57;1.83;;;;;;;;;;5006987;28;20104;-87
2024/01/15 09:25:18;;;;;;;1.45;1.35;;;;;;;;;;4999806;28;20632;-87
2024/01/15 09:27:44;;;;;;;2.45;0.95;;;;;;;;;;4979016;28;20042;-88
2024/01/15 09:30:11;;;;;;;12.30;3.78;;;;;;;;;;4984658;28;20042;-88
2024/01/15 09:32:37;;;;;;;7.47;2.45;;;;;;;;;;5002081;28;20039;-87
2024/01/15 09:35:03;;;;;;;5.30;2.20;;;;;;;;;;5003499;28;20044;-87
2024/01/15 09:37:29;;;;;;;1.70;0.98;;;;;;;;;;5003098;28;20494;-87
2024/01/15 09:39:55;;;;;;;9.40;0.80;;;;;;;;;;4996937;28;20042;-88
2024/01/15 09:42:24;;;;;;;0.55;0.13;;;;;;;;;;5002079;28;20042;-87
2024/01/15 09:44:50;;;;;;;3.20;0.85;;;;;;;;;;4999593;28;20046;-85
2024/01/15 09:47:16;;;;;;;1.98;0.45;;;;;;;;;;4999477;28;20387;-88
2024/01/15 09:49:42;;;;;;;3.38;1.27;;;;;;;;;;5001672;28;20044;-86
2024/01/15 09:52:08;;;;;;;3.50;0.90;;;;;;;;;;4977776;28;20046;-87
2024/01/15 09:54:34;;;;;;;1.45;0.35;;;;;;;;;;4980785;28;20042;-86
2024/01/15 09:57:03;;;;;;;4.22;0.85;;;;;;;;;;4980145;28;20485;-85
2024/01/15 09:59:30;;;;;;;0.77;0.75;;;;;;;;;;5001450;28;20100;-86
2024/01/15 10:01:57;;;;;;;1.45;0.22;;;;;;;;;;4997357;28;20473;-85
2024/01/15 10:04:23;;;;;;;2.35;0.20;;;;;;;;;;4994335;28;20042;-85
2024/01/15 10:06:51;;;;;;;4.72;0.80;;;;;;;;;;4986327;28;20408;-86
2024/01/15 10:09:18;;;;;;;6.32;1.15;;;;;;;;;;4999312;28;20038;-86
2024/01/15 10:11:45;;;;;;;7.07;0.80;;;;;;;;;;5001959;28;20144;-85
2024/01/15 10:14:12;;;;;;;4.65;0.70;;;;;;;;;;4979989;28;20049;-86
2024/01/15 10:16:39;;;;;;;1.95;0.82;;;;;;;;;;4980491;28;20049;-86
2024/01/15 10:19:05;;;;;;;2.95;1.70;;;;;;;;;;4999351;28;20043;-86
2024/01/15 10:21:34;;;;;;;2.30;0.73;;;;;;;;;;4984834;28;20049;-87
2024/01/15 10:24:00;;;;;;;3.85;0.75;;;;;;;;;;4989730;28;20042;-87
2024/01/15 10:26:27;;;;;;;1.13;0.52;;;;;;;;;;4978818;28;20114;-84
2024/01/15 10:28:52;;;;;;;1.88;0.63;;;;;;;;;;4997712;28;20032;-84
2024/01/15 10:31:21;;;;;;;5.05;1.27;;;;;;;;;;5013262;28;20039;-85
2024/01/15 10:33:50;;;;;;;1.65;0.75;;;;;;;;;;5011652;28;20130;-85
2024/01/15 10:36:17;;;;;;;0.85;0.20;;;;;;;;;;4978559;28;20570;-85
2024/01/15 10:38:44;;;;;;;0.20;0.20;;;;;;;;;;4999485;28;20037;-84
2024/01/15 10:41:10;;;;;;;1.35;0.40;;;;;;;;;;4999751;28;20049;-85
2024/01/15 10:43:36;;;;;;;0.73;0.28;;;;;;;;;;4997683;28;20090;-86
2024/01/15 10:46:02;;;;;;;1.35;0.50;;;;;;;;;;4993152;28;20126;-85
2024/01/15 10:48:30;;;;;;;0.93;0.45;;;;;;;;;;4996090;28;20445;-84
2024/01/15 10:50:57;;;;;;;1.27;0.20;;;;;;;;;;5000691;28;20029;-85
2024/01/15 10:53:27;;;;;;;1.90;0.65;;;;;;;;;;5000993;28;20022;-84
2024/01/15 10:55:54;;;;;;;4.10;0.70;;;;;;;;;;5025825;28;20056;-85
2024/01/15 10:58:23;;;;;;;2.75;0.40;;;;;;;;;;5024185;28;20046;-84
2024/01/15 11:00:49;;;;;;;2.72;0.47;;;;;;;;;;5025156;28;20050;-85
2024/01/15 11:03:16;;;;;;;2.28;0.88;;;;;;;;;;5022553;28;20057;-85
2024/01/15 11:05:43;;;;;;;1.50;0.30;;;;;;;;;;5022693;28;20046;-85
2024/01/15 11:08:09;;;;;;;0.30;0.10;;;;;;;;;;5009881;28;20046;-87
2024/01/15 11:10:42;;;;;;;1.65;0.73;;;;;;;;;;4998162;28;20101;-84
2024/01/15 11:13:15;;;;;;;1.17;0.30;;;;;;;;;;5007834;28;20046;-85
2024/01/15 11:15:57;;;;;;;7.38;0.28;;;;;;;;;;5022530;28;20053;-85
2024/01/15 11:18:23;;;;;;;1.77;0.35;;;;;;;;;;5020215;28;20041;-84
2024/01/15 11:21:08;;;;;;;1.35;0.35;;;;;;;;;;5001965;28;20046;-85
2024/01/15 11:23:51;;;;;;;1.45;0.60;;;;;;;;;;4962343;28;20053;-86
2024/01/15 11:26:17;;;;;;;;;;;;;;;;;;4945730;28;20042;-87
2024/01/15 11:28:49;;;;;;;0.52;0.30;;;;;;;;;;4969850;28;19918;-87
2024/01/15 11:31:16;;;;;;;1.10;0.10;;;;;;;;;;4953730;28;20046;-84
2024/01/15 11:33:48;;;;;;;1.42;0.47;;;;;;;;;;4968564;28;20046;-85
2024/01/15 11:36:14;;;;;;;0.38;0.38;;;;;;;;;;4979861;28;20049;-84
2024/01/15 11:38:40;;;;;;;1.40;0.77;;;;;;;;;;4984988;28;20117;-86
2024/01/15 11:41:16;;;;;;;2.80;0.20;;;;;;;;;;4958225;28;20041;-84
2024/01/15 11:43:42;;;;;;;3.80;0.47;;;;;;;;;;4953522;28;20037;-83
2024/01/15 11:46:12;;;;;;;2.45;0.13;;;;;;;;;;4960625;28;20043;-83
2024/01/15 11:48:52;;;;;;;2.22;0.30;;;;;;;;;;4967709;28;20054;-82
2024/01/15 11:51:18;;;;;;;0.68;0.47;;;;;;;;;;4990356;28;20047;-83
2024/01/15 11:53:48;;;;;;;0.20;0.20;;;;;;;;;;4984499;28;20039;-84
2024/01/15 11:56:17;;;;;;;3.50;0.50;;;;;;;;;;4957309;28;20053;-82
2024/01/15 11:58:43;;;;;;;0.95;0.30;;;;;;;;;;4973593;28;20039;-83
2024/01/15 12:01:11;;;;;;;0.73;0.30;;;;;;;;;;4967856;28;20039;-82
2024/01/15 12:03:37;;;;;;;2.15;0.73;;;;;;;;;;4962998;28;20039;-84
2024/01/15 12:06:05;;;;;;;0.25;0.17;;;;;;;;;;4967776;28;20397;-83
2024/01/15 12:08:31;;;;;;;2.15;0.98;;;;;;;;;;4962426;28;20568;-84
2024/01/15 12:10:57;;;;;;;2.03;0.63;;;;;;;;;;4955539;28;20133;-81
2024/01/15 12:13:23;;;;;;;1.20;0.55;;;;;;;;;;4988970;28;20038;-87
2024/01/15 12:15:50;;;;;;;0.30;0.20;;;;;;;;;;4965071;28;20101;-83
2024/01/15 12:18:17;;;;;;;13.50;0.50;;;;;;;;;;4984669;28;20035;-83
2024/01/15 12:20:46;;;;;;;0.82;0.10;;;;;;;;;;4973551;28;20047;-84
2024/01/15 12:23:16;;;;;;;0.38;0.10;;;;;;;;;;5000015;28;20046;-84
2024/01/15 12:25:43;;;;;;;3.35;0.50;;;;;;;;;;5006211;28;20092;-85
2024/01/15 12:28:10;;;;;;;0.40;0.28;;;;;;;;;;5006542;28;20051;-84
2024/01/15 12:30:37;;;;;;;0.88;0.50;;;;;;;;;;5001945;28;20049;-84
2024/01/15 12:33:03;;;;;;;0.25;0.25;;;;;;;;;;4999929;28;20082;-84
2024/01/15 12:35:30;;;;;;;0.65;0.38;;;;;;;;;;4998208;28;20039;-83
2024/01/15 12:38:02;;;;;;;2.75;0.35;;;;;;;;;;4999064;28;20181;-83
2024/01/15 12:40:28;;;;;;;3.72;0.40;;;;;;;;;;5006023;28;20042;-83
2024/01/15 12:42:54;;;;;;;0.20;0.17;;;;;;;;;;4988675;28;20077;-83
2024/01/15 12:45:20;;;;;;;5.63;0.40;;;;;;;;;;5003485;28;20076;-85
2024/01/15 12:47:46;;;;;;;1.23;0.70;;;;;;;;;;5005184;28;20057;-84
2024/01/15 12:50:13;;;;;;;0.43;0.30;;;;;;;;;;5008729;28;20045;-84
2024/01/15 12:52:41;;;;;;;0.30;0.22;;;;;;;;;;5005258;28;20042;-83
2024/01/15 12:55:07;;;;;;;0.25;0.20;;;;;;;;;;5008179;28;20046;-84
2024/01/15 12:57:34;;;;;;;2.67;0.32;;;;;;;;;;5003293;28;20041;-85
2024/01/15 13:00:01;;;;;;;0.50;0.25;;;;;;;;;;5005320;28;20034;-84
2024/01/15 13:02:27;;;;;;;2.15;0.95;;;;;;;;;;5003755;28;20044;-83
2024/01/15 13:04:54;;;;;;;1.40;0.22;;;;;;;;;;5001385;28;20035;-84
2024/01/15 13:07:20;;;;;;;3.67;0.50;;;;;;;;;;4987856;28;20144;-84
2024/01/15 13:09:46;;;;;;;0.10;0.10;;;;;;;;;;5008131;28;20512;-84
2024/01/15 13:12:15;;;;;;;0.47;0.45;;;;;;;;;;5003827;28;20049;-84
2024/01/15 13:14:41;;;;;;;0.65;0.20;;;;;;;;;;5001467;28;20038;-84
2024/01/15 13:17:07;;;;;;;1.10;0.52;;;;;;;;;;4986363;28;20046;-85
2024/01/15 13:19:33;;;;;;;0.17;0.17;;;;;;;;;;5006072;28;20375;-85
2024/01/15 13:22:00;;;;;;;3.60;0.40;;;;;;;;;;5006444;28;20050;-84
2024/01/15 13:24:26;;;;;;;2.00;0.63;;;;;;;;;;5006496;28;20042;-84
2024/01/15 13:26:52;;;;;;;0.45;0.20;;;;;;;;;;4982032;28;20524;-87
2024/01/15 13:29:19;;;;;;;1.20;0.65;;;;;;;;;;4984329;28;20097;-84
2024/01/15 13:31:46;;;;;;;3.53;1.00;;;;;;;;;;5007771;28;20068;-86
2024/01/15 13:34:12;;;;;;;2.15;0.43;;;;;;;;;;4982625;28;20074;-84
2024/01/15 13:36:38;;;;;;;0.63;0.22;;;;;;;;;;4993267;28;20500;-85
2024/01/15 13:39:08;;;;;;;1.40;0.30;;;;;;;;;;5012324;28;20074;-84
2024/01/15 13:41:34;;;;;;;2.67;0.57;;;;;;;;;;4989808;28;20104;-83
2024/01/15 13:44:00;;;;;;;1.92;0.20;;;;;;;;;;4996719;28;20445;-84
2024/01/15 13:46:26;;;;;;;0.40;0.17;;;;;;;;;;4982492;28;20041;-84
2024/01/15 13:49:07;;;;;;;2.38;0.60;;;;;;;;;;4983949;28;20084;-84
2024/01/15 13:51:34;;;;;;;1.48;0.95;;;;;;;;;;4999190;28;20050;-85
2024/01/15 13:54:07;;;;;;;2.35;0.30;;;;;;;;;;4996812;28;20103;-84
2024/01/15 13:56:35;;;;;;;2.95;0.55;;;;;;;;;;5003551;28;20493;-84
2024/01/15 13:59:01;;;;;;;2.92;0.57;;;;;;;;;;4988901;28;20488;-84
2024/01/15 14:01:28;;;;;;;1.20;0.70;;;;;;;;;;4996942;28;20038;-85
2024/01/15 14:03:54;;;;;;;2.08;0.32;;;;;;;;;;4984896;28;20040;-84
2024/01/15 14:06:24;;;;;;;1.45;0.85;;;;;;;;;;5000704;28;20121;-85
2024/01/15 14:08:50;;;;;;;1.48;0.30;;;;;;;;;;4988114;28;20374;-85
2024/01/15 14:11:16;;;;;;;0.40;0.30;;;;;;;;;;4989969;28;20045;-85
2024/01/15 14:13:42;;;;;;;5.35;0.70;;;;;;;;;;5005198;28;20074;-85
2024/01/15 14:16:09;;;;;;;0.95;0.50;;;;;;;;;;4986196;28;20042;-85
2024/01/15 14:18:36;;;;;;;3.45;1.48;;;;;;;;;;4983288;28;20406;-85
2024/01/15 14:21:02;;;;;;;7.13;1.55;;;;;;;;;;4992141;28;20034;-85
2024/01/15 14:23:28;;;;;;;1.50;0.70;;;;;;;;;;4995442;28;20046;-85
2024/01/15 14:25:54;;;;;;;1.60;0.57;;;;;;;;;;4996644;28;20034;-85
2024/01/15 14:28:20;;;;;;;3.63;0.47;;;;;;;;;;4984414;28;20057;-85
2024/01/15 14:30:46;;;;;;;4.57;0.55;;;;;;;;;;4964818;28;20046;-85
2024/01/15 14:33:12;;;;;;;2.08;0.38;;;;;;;;;;4993806;28;20100;-85
2024/01/15 14:35:38;;;;;;;2.30;1.27;;;;;;;;;;4955698;28;20062;-86
2024/01/15 14:38:04;;;;;;;4.50;1.17;;;;;;;;;;4933160;29;20047;-85
2024/01/15 14:40:30;;;;;;;0.57;0.32;;;;;;;;;;4943686;28;20049;-85